Time;durP1;ratioP1;P1;durP2;ratioP2;P2;SDS_P1;SDS_P2;PMS_P1;PMS_P2;Temp;Humidity;BMP_temperature;BMP_pressure;BME280_temperature;BME280_humidity;BME280_pressure;Samples;Min_cycle;Max_cycle;Signal;HPM_P1;HPM_P2
2022/03/03 00:01:41;;;;;;;27.73;13.90;;;;;;;3.21;81.22;102129.72;5065342;28;20036;-76
2022/03/03 00:04:07;;;;;;;23.50;13.93;;;;;;;3.18;79.56;102121.72;5062082;28;20039;-77
2022/03/03 00:06:34;;;;;;;24.77;13.38;;;;;;;3.21;82.42;102121.94;5062995;28;20397;-76
2022/03/03 00:08:59;;;;;;;22.80;13.93;;;;;;;3.18;80.66;102132.13;5067783;28;20078;-75
2022/03/03 00:11:25;;;;;;;24.20;13.23;;;;;;;3.20;79.76;102123.63;5040333;28;20532;-76
2022/03/03 00:13:52;;;;;;;21.50;13.63;;;;;;;3.20;80.44;102123.63;5064753;28;20037;-77
2022/03/03 00:16:18;;;;;;;22.65;13.52;;;;;;;3.07;82.54;102128.81;5050876;28;20024;-77
2022/03/03 00:18:43;;;;;;;23.08;12.80;;;;;;;3.01;81.57;102120.56;5065620;28;20613;-77
2022/03/03 00:21:08;;;;;;;21.30;12.70;;;;;;;2.96;82.03;102119.38;5045220;28;20033;-77
2022/03/03 00:23:34;;;;;;;22.98;13.38;;;;;;;2.92;80.19;102115.66;5040830;28;20074;-75
2022/03/03 00:25:59;;;;;;;23.65;13.43;;;;;;;3.11;85.04;102116.94;5062592;28;20112;-76
2022/03/03 00:28:25;;;;;;;23.92;14.15;;;;;;;2.90;83.74;102116.34;5071157;28;20063;-75
2022/03/03 00:30:50;;;;;;;24.02;13.68;;;;;;;2.94;86.53;102116.66;5064086;28;20541;-77
2022/03/03 00:33:15;;;;;;;24.33;13.73;;;;;;;2.83;85.92;102117.63;5045791;28;20043;-76
2022/03/03 00:35:41;;;;;;;22.20;13.63;;;;;;;2.73;85.41;102113.50;5069220;28;20025;-76
2022/03/03 00:38:06;;;;;;;21.10;12.82;;;;;;;2.66;83.98;102112.19;5037399;28;20119;-77
2022/03/03 00:40:31;;;;;;;23.48;13.75;;;;;;;2.70;85.05;102113.31;5047218;28;20025;-77
2022/03/03 00:42:57;;;;;;;24.25;13.75;;;;;;;2.49;85.75;102115.31;5063777;28;20032;-75
2022/03/03 00:45:22;;;;;;;22.77;13.90;;;;;;;2.72;86.65;102126.41;5054705;28;20021;-77
2022/03/03 00:47:48;;;;;;;22.45;12.68;;;;;;;2.67;86.21;102118.28;5048338;28;20032;-76
2022/03/03 00:50:14;;;;;;;23.40;12.95;;;;;;;2.69;85.21;102117.59;5048902;28;20119;-76
2022/03/03 00:52:40;;;;;;;22.25;12.10;;;;;;;2.57;84.23;102106.34;5053591;28;20033;-77
2022/03/03 00:55:05;;;;;;;25.33;14.00;;;;;;;2.52;84.99;102106.03;5034705;28;20040;-75
2022/03/03 00:57:31;;;;;;;22.63;13.65;;;;;;;2.55;85.54;102107.03;5052614;28;20021;-76
2022/03/03 00:59:56;;;;;;;21.42;13.60;;;;;;;2.53;85.22;102102.63;5050954;28;20393;-77
2022/03/03 01:02:21;;;;;;;24.58;13.57;;;;;;;2.60;85.51;102103.06;5051813;28;20484;-75
2022/03/03 01:04:47;;;;;;;22.95;13.02;;;;;;;2.61;84.31;102102.28;5053550;28;20438;-76
2022/03/03 01:07:12;;;;;;;27.48;14.07;;;;;;;2.48;83.55;102093.63;5052885;28;20040;-77
2022/03/03 01:09:38;;;;;;;23.27;13.43;;;;;;;2.47;85.17;102104.81;5051569;28;20473;-76
2022/03/03 01:12:03;;;;;;;24.42;13.35;;;;;;;2.41;84.81;102106.97;5053386;28;20032;-77
2022/03/03 01:14:29;;;;;;;25.90;13.80;;;;;;;2.44;84.73;102103.69;5052308;28;20029;-76
2022/03/03 01:16:54;;;;;;;22.80;14.20;;;;;;;2.39;86.16;102090.38;5038910;28;20036;-77
2022/03/03 01:19:20;;;;;;;21.10;12.93;;;;;;;2.46;85.17;102087.41;5034213;28;20033;-76
2022/03/03 01:21:45;;;;;;;23.83;13.27;;;;;;;2.43;85.32;102081.09;5034062;28;20071;-76
2022/03/03 01:24:10;;;;;;;25.92;14.30;;;;;;;2.47;85.84;102084.03;5053152;28;20044;-76
2022/03/03 01:26:36;;;;;;;24.42;13.27;;;;;;;2.34;86.45;102081.38;5034302;28;20044;-75
2022/03/03 01:29:01;;;;;;;24.90;14.10;;;;;;;2.29;86.88;102078.47;5041978;28;20075;-76
2022/03/03 01:31:26;;;;;;;21.65;13.50;;;;;;;2.29;87.07;102073.25;5027850;28;20017;-75
2022/03/03 01:33:52;;;;;;;27.13;15.05;;;;;;;2.31;87.55;102062.97;5040467;28;20021;-75
2022/03/03 01:36:18;;;;;;;23.25;13.32;;;;;;;2.41;87.88;102067.09;5051206;28;20033;-76
2022/03/03 01:38:44;;;;;;;28.77;14.63;;;;;;;2.37;88.57;102058.19;5028164;28;20034;-75
2022/03/03 01:41:09;;;;;;;33.28;13.18;;;;;;;2.31;86.77;102053.47;5057305;28;20028;-77
2022/03/03 01:43:34;;;;;;;23.88;14.15;;;;;;;2.29;88.69;102055.09;5052600;28;20048;-76
2022/03/03 01:46:00;;;;;;;27.23;14.55;;;;;;;2.26;89.13;102054.84;5052157;28;20361;-76
2022/03/03 01:48:25;;;;;;;25.05;13.75;;;;;;;2.22;87.87;102050.22;5035031;28;20024;-76
2022/03/03 01:50:52;;;;;;;26.40;13.85;;;;;;;2.28;86.42;102044.56;5062471;28;20396;-77
2022/03/03 01:53:18;;;;;;;29.90;13.52;;;;;;;2.21;86.90;102048.41;5067136;28;20029;-77
2022/03/03 01:55:43;;;;;;;23.40;13.30;;;;;;;2.20;86.68;102046.66;5065484;28;20551;-76
2022/03/03 01:58:09;;;;;;;28.48;14.02;;;;;;;2.09;87.14;102047.56;5041318;28;20028;-76
2022/03/03 02:00:34;;;;;;;22.83;13.10;;;;;;;2.07;86.08;102043.97;5050589;28;20039;-77
2022/03/03 02:03:03;;;;;;;23.10;12.82;;;;;;;2.04;87.03;102036.88;5070447;28;20032;-76
2022/03/03 02:05:30;;;;;;;24.30;13.13;;;;;;;1.95;86.61;102037.09;5037504;28;20028;-76
2022/03/03 02:07:56;;;;;;;22.58;13.43;;;;;;;2.05;87.33;102036.09;5036998;28;20089;-77
2022/03/03 02:10:21;;;;;;;21.15;13.38;;;;;;;2.00;86.46;102033.16;5064886;28;20480;-76
2022/03/03 02:12:46;;;;;;;23.83;13.25;;;;;;;2.08;86.58;102022.41;5037194;28;20473;-77
2022/03/03 02:15:19;;;;;;;24.33;13.07;;;;;;;2.05;85.87;102017.00;5037955;28;20079;-76
2022/03/03 02:17:45;;;;;;;23.52;13.25;;;;;;;2.05;86.36;102020.50;5035004;28;20063;-76
2022/03/03 02:20:21;;;;;;;25.67;14.23;;;;;;;2.02;85.04;102017.66;5059960;28;20056;-75
2022/03/03 02:22:47;;;;;;;21.05;12.90;;;;;;;2.00;85.25;102022.75;5058104;28;20377;-76
2022/03/03 02:25:12;;;;;;;27.20;14.80;;;;;;;1.98;86.46;102023.44;5054095;28;20036;-77
2022/03/03 02:27:37;;;;;;;24.38;14.57;;;;;;;1.92;86.81;102016.13;5069572;28;20074;-75
2022/03/03 02:30:03;;;;;;;22.90;14.25;;;;;;;1.86;86.56;102013.13;5048311;28;20394;-76
2022/03/03 02:32:29;;;;;;;24.48;13.50;;;;;;;1.83;86.06;102010.28;5057603;28;20512;-75
2022/03/03 02:34:54;;;;;;;24.15;13.25;;;;;;;1.87;86.57;102009.72;5066149;28;20060;-76
2022/03/03 02:37:20;;;;;;;22.13;12.77;;;;;;;1.87;84.99;102009.72;5068021;28;20055;-76
2022/03/03 02:39:45;;;;;;;24.67;14.18;;;;;;;1.80;86.05;102015.28;5066529;28;20039;-76
2022/03/03 02:42:10;;;;;;;23.20;13.52;;;;;;;1.90;85.06;102014.22;5045423;28;20090;-77
2022/03/03 02:44:36;;;;;;;23.98;13.38;;;;;;;1.90;86.20;102009.94;5066402;28;20476;-76
2022/03/03 02:47:01;;;;;;;28.25;14.73;;;;;;;1.93;87.71;102012.75;5066249;28;20025;-78
2022/03/03 02:49:26;;;;;;;21.73;12.27;;;;;;;1.82;86.48;102013.69;5055438;28;20032;-77
2022/03/03 02:51:52;;;;;;;25.02;13.50;;;;;;;1.82;86.63;102011.09;5071254;28;20048;-77
2022/03/03 02:54:17;;;;;;;21.92;13.32;;;;;;;1.88;87.28;102011.53;5061159;28;20052;-76
2022/03/03 02:59:26;;;;;;;22.00;12.82;;;;;;;1.85;85.74;102012.19;5066638;28;20035;-77
2022/03/03 03:01:52;;;;;;;22.63;13.23;;;;;;;1.83;86.06;102011.22;5067282;28;20402;-77
2022/03/03 03:04:17;;;;;;;24.25;13.98;;;;;;;1.79;86.77;102000.47;5059729;28;20044;-76
2022/03/03 03:06:43;;;;;;;23.85;13.80;;;;;;;1.85;87.82;102006.13;5054913;28;20035;-77
2022/03/03 03:09:08;;;;;;;27.48;14.10;;;;;;;1.85;87.94;102006.13;5072399;28;20024;-76
2022/03/03 03:11:34;;;;;;;26.02;13.60;;;;;;;1.76;88.10;102000.28;5067852;28;20021;-76
2022/03/03 03:13:59;;;;;;;24.70;13.20;;;;;;;1.74;87.35;101999.28;5044777;28;20116;-75
2022/03/03 03:16:24;;;;;;;21.27;12.70;;;;;;;1.84;87.77;102005.19;5067707;28;20029;-76
2022/03/03 03:18:50;;;;;;;24.98;13.73;;;;;;;1.69;87.33;101999.81;5057659;28;20115;-77
2022/03/03 03:21:15;;;;;;;23.95;12.57;;;;;;;1.58;87.32;101990.38;5053205;28;20056;-76
2022/03/03 03:23:40;;;;;;;21.42;13.02;;;;;;;1.57;87.34;101995.47;5058188;28;20039;-75
2022/03/03 03:26:06;;;;;;;25.15;13.75;;;;;;;1.48;87.04;101987.94;5050214;28;20024;-76
2022/03/03 03:28:31;;;;;;;24.88;14.10;;;;;;;1.45;87.73;101988.63;5043891;28;20036;-77
2022/03/03 03:30:57;;;;;;;23.60;14.02;;;;;;;1.38;87.25;101985.47;5028196;28;20029;-76
2022/03/03 03:33:22;;;;;;;24.05;14.43;;;;;;;1.41;88.27;101985.69;5059000;28;20119;-77
2022/03/03 03:35:47;;;;;;;29.13;14.30;;;;;;;1.37;87.58;101987.16;5047127;28;20028;-76
2022/03/03 03:38:13;;;;;;;24.42;13.90;;;;;;;1.42;87.99;101979.72;5064906;28;20119;-77
2022/03/03 03:40:38;;;;;;;24.23;13.23;;;;;;;1.43;87.57;101974.63;5064375;28;20434;-76
2022/03/03 03:43:04;;;;;;;23.23;13.30;;;;;;;1.50;87.35;101975.97;5044404;28;20501;-76
2022/03/03 03:45:31;;;;;;;23.90;13.88;;;;;;;1.50;86.84;101976.84;5043924;28;20025;-76
2022/03/03 03:47:57;;;;;;;26.42;14.43;;;;;;;1.60;86.92;101977.50;5071450;28;20563;-75
2022/03/03 03:50:22;;;;;;;20.85;12.65;;;;;;;1.58;85.53;101967.03;5048507;28;20124;-76
2022/03/03 03:52:48;;;;;;;25.00;14.55;;;;;;;1.58;85.38;101964.44;5053569;28;20036;-76
2022/03/03 03:55:14;;;;;;;23.70;13.55;;;;;;;1.56;86.12;101966.03;5064313;28;20473;-75
2022/03/03 03:57:40;;;;;;;26.40;14.52;;;;;;;1.50;85.94;101965.59;5054408;28;20025;-77
2022/03/03 04:00:09;;;;;;;27.05;14.23;;;;;;;1.53;87.57;101965.81;5042686;28;20522;-76
2022/03/03 04:02:34;;;;;;;23.33;13.48;;;;;;;1.56;87.56;101960.84;5054522;28;20477;-76
2022/03/03 04:04:59;;;;;;;28.55;14.27;;;;;;;1.59;87.43;101961.06;5056470;28;20087;-77
2022/03/03 04:07:25;;;;;;;25.25;13.63;;;;;;;1.58;87.81;101958.38;5049143;28;20082;-76
2022/03/03 04:09:50;;;;;;;24.88;14.25;;;;;;;1.51;88.19;101959.63;5052445;28;20392;-77
2022/03/03 04:12:15;;;;;;;24.67;13.38;;;;;;;1.53;87.31;101958.03;5034221;28;20484;-76
2022/03/03 04:14:41;;;;;;;21.98;13.90;;;;;;;1.50;88.28;101963.00;5051290;28;20033;-76
2022/03/03 04:17:07;;;;;;;26.75;13.77;;;;;;;1.52;88.81;101958.84;5046886;28;20111;-76
2022/03/03 04:19:32;;;;;;;22.73;14.25;;;;;;;1.54;88.91;101970.22;5046546;28;20031;-75
2022/03/03 04:21:57;;;;;;;23.05;13.77;;;;;;;1.52;89.19;101970.09;5064356;28;20107;-77
2022/03/03 04:24:23;;;;;;;25.45;14.52;;;;;;;1.49;88.67;101971.56;5063718;28;20051;-77
2022/03/03 04:26:48;;;;;;;25.20;13.68;;;;;;;1.52;88.03;101972.69;5027979;28;20029;-77
2022/03/03 04:29:15;;;;;;;29.25;14.50;;;;;;;1.47;88.16;101971.47;5067948;28;20082;-76
2022/03/03 04:31:40;;;;;;;24.52;14.30;;;;;;;1.51;88.71;101968.28;5067955;28;20099;-76
2022/03/03 04:34:07;;;;;;;24.77;14.25;;;;;;;1.49;89.26;101974.16;5055583;28;20117;-76
2022/03/03 04:36:33;;;;;;;29.63;14.90;;;;;;;1.50;88.20;101970.78;5052884;28;20464;-76
2022/03/03 04:38:59;;;;;;;32.72;14.32;;;;;;;1.45;87.97;101962.69;5057209;28;20064;-76
2022/03/03 04:41:24;;;;;;;22.38;13.32;;;;;;;1.40;88.19;101956.25;5052294;28;20032;-75
2022/03/03 04:43:49;;;;;;;24.35;14.65;;;;;;;1.40;88.08;101951.06;5059391;28;20032;-76
2022/03/03 04:46:15;;;;;;;23.85;14.13;;;;;;;1.43;89.60;101947.81;5050053;28;20027;-77
2022/03/03 04:48:40;;;;;;;24.67;14.23;;;;;;;1.39;90.00;101950.97;5055724;28;20028;-77
2022/03/03 04:51:05;;;;;;;29.17;14.43;;;;;;;1.35;90.13;101944.66;5047536;28;20042;-76
2022/03/03 04:53:31;;;;;;;28.00;14.38;;;;;;;1.31;89.75;101953.88;5051822;28;20378;-76
2022/03/03 04:55:57;;;;;;;24.17;14.85;;;;;;;1.28;89.39;101956.28;5058530;28;20434;-76
2022/03/03 04:58:23;;;;;;;25.38;13.63;;;;;;;1.31;89.27;101953.88;5057892;28;20532;-77
2022/03/03 05:00:49;;;;;;;23.52;14.73;;;;;;;1.27;88.89;101946.69;5046891;28;20112;-77
2022/03/03 05:03:14;;;;;;;26.65;14.85;;;;;;;1.28;89.41;101943.31;5067868;28;20442;-77
2022/03/03 05:05:40;;;;;;;24.83;14.15;;;;;;;1.29;89.11;101944.19;5057291;28;20186;-77
2022/03/03 05:08:05;;;;;;;26.80;14.95;;;;;;;1.28;88.62;101951.09;5063815;28;20472;-77
2022/03/03 05:10:31;;;;;;;27.33;15.32;;;;;;;1.27;88.10;101946.69;5059693;28;20024;-77
2022/03/03 05:12:57;;;;;;;28.50;14.95;;;;;;;1.26;88.15;101950.09;5056657;28;20028;-76
2022/03/03 05:15:22;;;;;;;23.70;13.70;;;;;;;1.26;88.35;101946.56;5060898;28;20487;-77
2022/03/03 05:17:48;;;;;;;24.48;14.05;;;;;;;1.24;87.93;101940.41;5043781;28;20160;-77
2022/03/03 05:20:13;;;;;;;28.42;14.40;;;;;;;1.23;88.38;101944.66;5070457;28;20089;-78
2022/03/03 05:22:39;;;;;;;25.17;14.93;;;;;;;1.20;88.63;101944.44;5048190;28;20032;-75
2022/03/03 05:25:05;;;;;;;25.40;14.60;;;;;;;1.25;90.09;101943.09;5058833;28;20032;-76
2022/03/03 05:27:30;;;;;;;31.83;15.40;;;;;;;1.23;88.20;101946.38;5045236;28;20036;-76
2022/03/03 05:29:56;;;;;;;23.63;14.15;;;;;;;1.23;87.47;101944.66;5044246;28;20017;-76
2022/03/03 05:32:21;;;;;;;24.65;13.95;;;;;;;1.20;88.59;101947.03;5039769;28;20059;-76
2022/03/03 05:34:46;;;;;;;27.65;14.75;;;;;;;1.23;88.95;101946.38;5043740;28;20388;-75
2022/03/03 05:37:14;;;;;;;26.83;15.07;;;;;;;1.23;88.99;101942.06;5058370;28;20054;-76
2022/03/03 05:39:41;;;;;;;28.10;16.67;;;;;;;1.23;90.24;101944.66;5069087;28;20028;-76
2022/03/03 05:42:07;;;;;;;24.77;15.60;;;;;;;1.12;90.64;101946.47;5061963;28;20513;-77
2022/03/03 05:44:34;;;;;;;24.95;14.85;;;;;;;1.04;90.66;101946.72;5046470;28;20085;-76
2022/03/03 05:47:00;;;;;;;24.85;14.50;;;;;;;0.97;92.08;101954.03;5062436;28;20074;-77
2022/03/03 05:49:25;;;;;;;25.27;15.43;;;;;;;0.94;92.42;101946.03;5054968;28;20032;-77
2022/03/03 05:51:51;;;;;;;24.25;14.98;;;;;;;0.97;90.83;101948.84;5066489;28;20041;-77
2022/03/03 05:54:16;;;;;;;27.35;15.15;;;;;;;0.96;90.04;101951.34;5064138;28;20032;-77
2022/03/03 05:56:45;;;;;;;27.25;15.75;;;;;;;0.97;90.04;101950.56;5067793;28;20073;-75
2022/03/03 05:59:14;;;;;;;31.33;14.77;;;;;;;0.95;90.74;101952.13;5049974;28;20021;-76
2022/03/03 06:01:41;;;;;;;23.98;14.10;;;;;;;0.95;90.01;101941.75;5050525;28;20029;-77
2022/03/03 06:04:08;;;;;;;29.70;15.88;;;;;;;0.95;91.43;101947.84;5049765;28;20024;-77
2022/03/03 06:06:36;;;;;;;24.80;15.38;;;;;;;0.96;90.80;101957.44;5060461;28;20102;-77
2022/03/03 06:09:11;;;;;;;24.73;14.90;;;;;;;0.93;91.45;101959.78;5041306;28;20025;-77
2022/03/03 06:11:45;;;;;;;24.83;15.55;;;;;;;0.80;92.51;101963.16;5053262;28;20507;-77
2022/03/03 06:14:11;;;;;;;27.45;15.88;;;;;;;0.82;92.05;101960.69;5045200;28;20051;-76
2022/03/03 06:16:39;;;;;;;25.92;15.35;;;;;;;0.81;92.41;101964.06;5062199;28;20075;-77
2022/03/03 06:19:04;;;;;;;27.17;14.60;;;;;;;0.79;92.57;101957.88;5046545;28;20025;-77
2022/03/03 06:21:30;;;;;;;27.27;16.23;;;;;;;0.77;93.22;101962.03;5067999;28;20075;-75
2022/03/03 06:23:56;;;;;;;28.20;16.20;;;;;;;0.73;93.41;101960.00;5058115;28;20074;-76
2022/03/03 06:26:22;;;;;;;23.98;15.18;;;;;;;0.67;94.25;101955.28;5065609;28;20425;-77
2022/03/03 06:28:47;;;;;;;28.10;16.13;;;;;;;0.67;93.68;101948.41;5062429;28;20067;-76
2022/03/03 06:31:14;;;;;;;28.08;15.43;;;;;;;0.67;93.25;101960.47;5055893;28;20052;-77
2022/03/03 06:33:40;;;;;;;28.38;15.35;;;;;;;0.70;92.90;101957.19;5043256;28;20059;-78
2022/03/03 06:36:06;;;;;;;29.13;16.33;;;;;;;0.73;92.68;101954.81;5061515;28;20107;-77
2022/03/03 06:38:32;;;;;;;32.45;16.10;;;;;;;0.76;91.52;101958.56;5051790;28;20032;-76
2022/03/03 06:40:57;;;;;;;26.40;16.25;;;;;;;0.79;91.34;101960.47;5059331;28;20029;-76
2022/03/03 06:43:29;;;;;;;29.33;16.08;;;;;;;0.80;91.47;101963.16;5046871;28;20166;-77
2022/03/03 06:45:58;;;;;;;30.10;16.63;;;;;;;0.84;93.47;101964.28;5064435;28;20028;-76
2022/03/03 06:48:24;;;;;;;32.45;15.80;;;;;;;0.80;93.37;101970.94;5058953;28;20040;-77
2022/03/03 06:50:52;;;;;;;31.23;15.70;;;;;;;0.80;94.37;101980.38;5071026;28;20409;-77
2022/03/03 06:53:33;;;;;;;25.27;14.60;;;;;;;0.74;93.83;101975.66;5062112;28;20021;-78
2022/03/03 06:56:10;;;;;;;31.17;16.90;;;;;;;0.80;94.58;101976.13;5040613;28;20021;-74
2022/03/03 06:58:36;;;;;;;29.55;16.42;;;;;;;0.85;93.18;101968.69;5043102;28;20023;-76
2022/03/03 07:01:05;;;;;;;29.05;15.55;;;;;;;0.85;93.44;101976.47;5052851;28;20024;-78
2022/03/03 07:03:31;;;;;;;30.27;16.98;;;;;;;0.85;92.61;101976.47;5051475;28;20027;-78
2022/03/03 07:05:57;;;;;;;33.58;16.73;;;;;;;0.84;92.52;101979.81;5046893;28;20091;-80
2022/03/03 07:08:22;;;;;;;29.98;16.60;;;;;;;0.82;91.89;101977.13;5063927;28;20025;-81
2022/03/03 07:10:48;;;;;;;34.22;16.60;;;;;;;0.84;92.20;101966.88;5069251;28;20108;-82
2022/03/03 07:13:17;;;;;;;29.27;16.52;;;;;;;0.83;91.55;101983.22;5061206;28;20129;-81
2022/03/03 07:15:54;;;;;;;28.98;17.15;;;;;;;0.84;91.51;101975.56;5068302;28;20036;-78
2022/03/03 07:18:27;;;;;;;32.80;15.70;;;;;;;0.87;91.80;101979.16;5062579;28;20384;-83
2022/03/03 07:21:14;;;;;;;30.02;16.58;;;;;;;0.90;90.76;101975.13;5059719;28;20047;-83
2022/03/03 07:23:46;;;;;;;25.52;15.82;;;;;;;0.96;90.79;101975.59;5070295;28;20025;-82
2022/03/03 07:26:13;;;;;;;28.40;16.98;;;;;;;0.98;91.47;101983.47;5053286;28;20447;-80
2022/03/03 07:28:44;;;;;;;34.38;16.35;;;;;;;0.98;93.35;101983.47;5068375;28;20052;-80
2022/03/03 07:31:11;;;;;;;28.67;16.73;;;;;;;1.03;94.35;101981.19;5056933;28;20025;-81
2022/03/03 07:33:52;;;;;;;29.83;16.83;;;;;;;1.06;93.05;101981.41;5063892;28;20393;-79
2022/03/03 07:36:22;;;;;;;27.33;16.65;;;;;;;1.10;91.44;101981.78;5059452;28;20035;-80
2022/03/03 07:38:56;;;;;;;27.70;16.55;;;;;;;1.18;90.09;101984.91;5057660;28;20029;-81
2022/03/03 07:41:22;;;;;;;29.48;17.05;;;;;;;1.24;89.93;101979.28;5052284;28;20434;-80
2022/03/03 07:43:48;;;;;;;28.70;15.77;;;;;;;1.28;90.37;101979.59;5048665;28;20021;-80
2022/03/03 07:46:14;;;;;;;28.05;16.58;;;;;;;1.35;89.01;101975.75;5057361;28;20393;-80
2022/03/03 07:48:44;;;;;;;35.10;15.85;;;;;;;1.41;89.68;101984.00;5055856;28;20384;-79
2022/03/03 07:51:10;;;;;;;27.63;16.23;;;;;;;1.47;89.04;101980.94;5061171;28;20071;-81
2022/03/03 07:53:35;;;;;;;31.35;16.95;;;;;;;1.52;89.55;101979.59;5064736;28;20036;-81
2022/03/03 07:56:03;;;;;;;28.42;14.98;;;;;;;1.55;89.31;101989.25;5077608;28;20028;-80
2022/03/03 07:58:31;;;;;;;26.63;16.42;;;;;;;1.60;88.69;101988.81;5062123;28;20397;-80
2022/03/03 08:00:59;;;;;;;26.63;16.17;;;;;;;1.68;88.28;101987.66;5069562;28;20408;-81
2022/03/03 08:03:25;;;;;;;26.95;16.75;;;;;;;1.79;86.29;101975.44;5062096;28;20077;-81
2022/03/03 08:05:55;;;;;;;29.80;15.82;;;;;;;1.89;86.46;101981.28;5066049;28;20025;-82
2022/03/03 08:08:23;;;;;;;25.50;15.35;;;;;;;1.96;86.15;101978.31;5062103;28;20044;-80
2022/03/03 08:10:48;;;;;;;26.33;16.38;;;;;;;2.02;86.05;101982.25;5073749;28;20024;-80
2022/03/03 08:13:18;;;;;;;28.27;16.65;;;;;;;2.08;85.96;101983.47;5062464;28;20132;-79
2022/03/03 08:15:45;;;;;;;27.90;15.77;;;;;;;2.14;85.76;101984.81;5069601;28;20376;-79
2022/03/03 08:18:11;;;;;;;27.65;16.35;;;;;;;2.23;85.09;101978.44;5062827;28;20056;-79
2022/03/03 08:20:38;;;;;;;29.15;16.35;;;;;;;2.32;85.01;101981.63;5065088;28;20432;-80
2022/03/03 08:23:05;;;;;;;27.35;15.30;;;;;;;2.38;84.55;101981.19;5067374;28;20024;-80
2022/03/03 08:25:32;;;;;;;35.00;16.17;;;;;;;2.46;83.68;101988.69;5063417;28;20024;-79
2022/03/03 08:27:58;;;;;;;27.73;16.40;;;;;;;2.53;83.34;101995.19;5069833;28;20033;-80
2022/03/03 08:30:24;;;;;;;28.88;15.43;;;;;;;2.59;83.18;101986.91;5055064;28;20051;-79
2022/03/03 08:33:13;;;;;;;29.35;16.30;;;;;;;2.68;82.83;101996.22;5067221;28;20029;-79
2022/03/03 08:35:41;;;;;;;26.90;15.68;;;;;;;2.79;80.99;101993.47;5063236;28;20021;-80
2022/03/03 08:38:23;;;;;;;33.78;17.20;;;;;;;2.89;81.95;101985.47;5072716;28;20028;-80
2022/03/03 08:40:51;;;;;;;25.67;16.10;;;;;;;2.95;81.89;101988.47;5060386;28;20021;-79
2022/03/03 08:43:20;;;;;;;28.52;15.00;;;;;;;3.11;78.84;101992.09;5066422;28;20033;-76
2022/03/03 08:45:48;;;;;;;22.58;14.77;;;;;;;3.22;78.78;101987.59;5053531;28;20027;-79
2022/03/03 08:48:15;;;;;;;29.90;16.20;;;;;;;3.35;77.81;101985.88;5056005;28;20128;-80
2022/03/03 08:50:42;;;;;;;29.25;15.45;;;;;;;3.45;76.92;101989.06;5056632;28;20397;-79
2022/03/03 08:53:09;;;;;;;26.88;15.13;;;;;;;3.61;76.85;101975.31;5063322;28;20069;-79
2022/03/03 08:55:36;;;;;;;25.95;14.88;;;;;;;3.65;77.67;101982.50;5051966;28;20036;-79
2022/03/03 08:58:03;;;;;;;24.60;13.05;;;;;;;3.77;75.48;101977.19;5063874;28;20488;-81
2022/03/03 09:00:30;;;;;;;23.02;13.95;;;;;;;3.86;75.46;101969.94;5066886;28;20020;-80
2022/03/03 09:02:56;;;;;;;25.52;14.00;;;;;;;4.00;74.68;101979.53;5068527;28;20036;-79
2022/03/03 09:05:22;;;;;;;24.20;14.80;;;;;;;4.13;74.71;101982.88;5056088;28;20028;-78
2022/03/03 09:07:48;;;;;;;23.27;13.88;;;;;;;4.22;73.68;101983.44;5079754;28;20090;-78
2022/03/03 09:10:14;;;;;;;20.10;13.55;;;;;;;4.44;73.22;101989.94;5048172;28;20029;-79
2022/03/03 09:12:40;;;;;;;21.83;13.88;;;;;;;4.60;72.08;101986.53;5063843;28;20436;-80
2022/03/03 09:15:07;;;;;;;20.35;13.25;;;;;;;4.84;70.81;101984.47;5067930;28;20379;-81
2022/03/03 09:17:33;;;;;;;19.92;13.20;;;;;;;5.05;70.65;101988.31;5034698;28;20033;-79
2022/03/03 09:20:00;;;;;;;23.63;14.65;;;;;;;5.31;67.16;101974.97;5059813;28;20024;-81
2022/03/03 09:22:26;;;;;;;22.00;13.18;;;;;;;5.60;67.21;101981.78;5062892;28;20050;-81
2022/03/03 09:24:53;;;;;;;22.65;13.18;;;;;;;5.91;66.09;101980.84;5052999;28;20036;-78
2022/03/03 09:27:19;;;;;;;20.98;13.15;;;;;;;6.23;62.49;101972.16;5040695;28;20036;-79
2022/03/03 09:29:44;;;;;;;23.50;13.00;;;;;;;6.53;62.79;101971.94;5062380;28;20036;-79
2022/03/03 09:32:10;;;;;;;21.50;13.05;;;;;;;6.84;62.93;101970.00;5064498;28;20093;-81
2022/03/03 09:34:35;;;;;;;24.02;13.45;;;;;;;7.19;61.02;101960.34;5055230;28;20034;-82
2022/03/03 09:37:01;;;;;;;23.02;13.43;;;;;;;7.64;59.02;101958.13;5056108;28;20025;-79
2022/03/03 09:39:26;;;;;;;20.85;13.18;;;;;;;7.87;58.14;101966.16;5052134;28;20024;-77
2022/03/03 09:41:52;;;;;;;26.77;12.95;;;;;;;8.30;56.95;101967.19;5062098;28;20150;-79
2022/03/03 09:44:25;;;;;;;20.85;13.63;;;;;;;8.53;55.91;101965.59;5063334;28;20028;-82
2022/03/03 09:46:51;;;;;;;19.92;12.13;;;;;;;8.79;54.42;101961.47;5061251;28;20052;-77
2022/03/03 09:49:18;;;;;;;18.63;11.60;;;;;;;8.99;53.97;101962.25;5076430;28;20024;-79
2022/03/03 09:51:45;;;;;;;20.55;12.05;;;;;;;9.16;53.25;101959.47;5063199;28;20041;-79
2022/03/03 09:54:11;;;;;;;23.42;13.00;;;;;;;9.14;56.51;101961.09;5083207;28;20100;-80
2022/03/03 09:56:39;;;;;;;21.40;14.02;;;;;;;9.57;56.14;101957.56;5071759;28;20045;-78
2022/03/03 09:59:07;;;;;;;18.90;12.70;;;;;;;9.73;54.47;101959.03;5066239;28;20032;-80
2022/03/03 10:01:33;;;;;;;17.90;12.82;;;;;;;9.88;51.24;101946.47;5052055;28;20017;-80
2022/03/03 10:04:22;;;;;;;21.98;13.45;;;;;;;9.69;52.19;101958.03;5076149;28;20137;-78
2022/03/03 10:06:49;;;;;;;20.35;13.45;;;;;;;9.81;52.05;101959.31;5069444;28;20425;-75
2022/03/03 10:09:16;;;;;;;19.42;13.38;;;;;;;9.79;52.83;101954.91;5074412;28;20052;-80
2022/03/03 10:11:47;;;;;;;17.80;12.25;;;;;;;10.23;50.63;101946.88;5057440;28;20427;-78
2022/03/03 10:14:13;;;;;;;18.65;13.13;;;;;;;10.25;49.55;101945.16;5055577;28;20491;-80
2022/03/03 10:16:47;;;;;;;17.10;12.52;;;;;;;10.26;50.49;101944.31;5067394;28;20024;-82
2022/03/03 10:19:13;;;;;;;17.48;12.38;;;;;;;10.36;49.21;101945.56;5060503;28;20029;-80
2022/03/03 10:21:40;;;;;;;16.08;12.05;;;;;;;10.40;47.38;101939.59;5059521;28;20444;-79
2022/03/03 10:24:22;;;;;;;23.23;12.68;;;;;;;10.54;49.63;101944.44;5070751;28;20103;-80
2022/03/03 10:26:59;;;;;;;17.67;12.02;;;;;;;10.42;46.59;101937.03;5069371;28;20522;-79
2022/03/03 10:29:25;;;;;;;17.80;12.25;;;;;;;10.56;47.94;101946.28;5072186;28;20022;-81
2022/03/03 10:31:52;;;;;;;21.20;12.50;;;;;;;10.77;47.14;101943.50;5066797;28;20376;-78
2022/03/03 10:34:20;;;;;;;21.83;12.98;;;;;;;10.99;44.76;101938.00;5050190;28;20494;-79
2022/03/03 10:37:03;;;;;;;17.75;12.60;;;;;;;11.26;45.72;101938.91;5063897;28;20029;-79
2022/03/03 10:39:43;;;;;;;16.47;12.57;;;;;;;11.30;45.55;101932.00;5067371;28;20036;-79
2022/03/03 10:42:17;;;;;;;19.80;13.00;;;;;;;11.47;45.95;101941.31;5069881;28;20093;-78
2022/03/03 10:44:43;;;;;;;;;;;;;;;11.75;45.85;101931.59;5056433;28;20021;-80
2022/03/03 10:47:14;;;;;;;20.70;12.85;;;;;;;11.85;42.26;101931.88;5076034;28;19994;-79
2022/03/03 10:49:42;;;;;;;19.60;11.95;;;;;;;12.10;40.65;101929.09;5053202;28;21404;-79
2022/03/03 10:52:12;;;;;;;17.70;11.75;;;;;;;12.12;41.16;101926.50;5072265;28;20032;-80
2022/03/03 10:54:49;;;;;;;16.55;11.50;;;;;;;12.42;41.46;101930.81;5062260;28;20369;-79
2022/03/03 10:57:38;;;;;;;17.27;11.73;;;;;;;12.20;40.82;101927.59;5075642;28;20028;-79
2022/03/03 11:00:10;;;;;;;17.33;11.85;;;;;;;12.55;39.86;101925.03;5049415;28;20052;-78
2022/03/03 11:02:38;;;;;;;17.30;11.68;;;;;;;12.57;41.10;101919.78;5068646;28;20029;-78
2022/03/03 11:05:05;;;;;;;22.83;14.80;;;;;;;12.88;41.79;101917.91;5058157;28;20025;-80
2022/03/03 11:07:31;;;;;;;16.00;11.52;;;;;;;13.01;38.24;101905.88;5064814;28;20055;-80
2022/03/03 11:09:57;;;;;;;16.33;11.63;;;;;;;13.29;38.07;101908.31;5066979;28;20067;-78
2022/03/03 11:12:22;;;;;;;18.73;12.40;;;;;;;13.51;40.50;101914.09;5070027;28;20025;-78
2022/03/03 11:14:48;;;;;;;14.68;10.80;;;;;;;13.88;36.22;101909.56;5067016;28;20086;-81
2022/03/03 11:17:14;;;;;;;16.92;11.68;;;;;;;13.56;37.66;101914.19;5070267;28;20024;-78
2022/03/03 11:19:41;;;;;;;17.60;12.38;;;;;;;13.73;38.42;101915.44;5066336;28;20173;-81